sensor_id;sensor_type;location;lat;lon;timestamp;P1;durP1;ratioP1;P2;durP2;ratioP2
2111;SDS011;1062;52.538;13.400;2022-09-09T00:00:22;8.70;;;7.13;;
2111;SDS011;1062;52.538;13.400;2022-09-09T00:02:51;7.87;;;6.40;;
2111;SDS011;1062;52.538;13.400;2022-09-09T00:05:29;10.10;;;7.13;;
2111;SDS011;1062;52.538;13.400;2022-09-09T00:08:02;8.07;;;6.00;;
2111;SDS011;1062;52.538;13.400;2022-09-09T00:10:33;8.17;;;6.60;;
2111;SDS011;1062;52.538;13.400;2022-09-09T00:13:15;7.37;;;6.47;;
2111;SDS011;1062;52.538;13.400;2022-09-09T00:16:13;8.70;;;7.00;;
2111;SDS011;1062;52.538;13.400;2022-09-09T00:21:19;7.40;;;6.40;;
2111;SDS011;1062;52.538;13.400;2022-09-09T00:23:57;7.20;;;6.50;;
2111;SDS011;1062;52.538;13.400;2022-09-09T00:29:09;7.10;;;6.40;;
2111;SDS011;1062;52.538;13.400;2022-09-09T00:31:43;7.50;;;6.17;;
2111;SDS011;1062;52.538;13.400;2022-09-09T00:34:10;7.40;;;6.70;;
2111;SDS011;1062;52.538;13.400;2022-09-09T00:36:42;7.33;;;6.20;;
2111;SDS011;1062;52.538;13.400;2022-09-09T00:39:13;7.70;;;7.00;;
2111;SDS011;1062;52.538;13.400;2022-09-09T00:42:12;7.70;;;6.90;;
2111;SDS011;1062;52.538;13.400;2022-09-09T00:44:39;7.00;;;5.87;;
2111;SDS011;1062;52.538;13.400;2022-09-09T00:50:25;7.77;;;6.50;;
2111;SDS011;1062;52.538;13.400;2022-09-09T00:53:06;7.20;;;5.67;;
2111;SDS011;1062;52.538;13.400;2022-09-09T00:55:45;9.20;;;7.60;;
2111;SDS011;1062;52.538;13.400;2022-09-09T00:58:14;7.20;;;6.43;;
2111;SDS011;1062;52.538;13.400;2022-09-09T01:00:44;9.93;;;7.33;;
2111;SDS011;1062;52.538;13.400;2022-09-09T01:11:49;9.50;;;7.30;;
2111;SDS011;1062;52.538;13.400;2022-09-09T01:14:38;7.63;;;6.83;;
2111;SDS011;1062;52.538;13.400;2022-09-09T01:17:28;9.40;;;7.83;;
2111;SDS011;1062;52.538;13.400;2022-09-09T01:20:01;8.73;;;7.43;;
2111;SDS011;1062;52.538;13.400;2022-09-09T01:22:34;9.40;;;7.90;;
2111;SDS011;1062;52.538;13.400;2022-09-09T01:27:53;8.83;;;7.93;;
2111;SDS011;1062;52.538;13.400;2022-09-09T01:30:21;8.23;;;7.30;;
2111;SDS011;1062;52.538;13.400;2022-09-09T01:32:53;9.90;;;8.77;;
2111;SDS011;1062;52.538;13.400;2022-09-09T01:38:00;12.43;;;8.00;;
2111;SDS011;1062;52.538;13.400;2022-09-09T01:40:25;11.87;;;8.90;;
2111;SDS011;1062;52.538;13.400;2022-09-09T01:42:51;15.37;;;9.07;;
2111;SDS011;1062;52.538;13.400;2022-09-09T01:45:17;11.20;;;7.60;;
2111;SDS011;1062;52.538;13.400;2022-09-09T01:47:44;10.33;;;8.37;;
2111;SDS011;1062;52.538;13.400;2022-09-09T01:50:11;10.60;;;8.43;;
2111;SDS011;1062;52.538;13.400;2022-09-09T01:52:40;12.97;;;8.67;;
2111;SDS011;1062;52.538;13.400;2022-09-09T01:55:06;10.27;;;9.00;;
2111;SDS011;1062;52.538;13.400;2022-09-09T01:57:36;11.23;;;8.50;;
2111;SDS011;1062;52.538;13.400;2022-09-09T02:00:14;9.77;;;8.10;;
2111;SDS011;1062;52.538;13.400;2022-09-09T02:02:46;10.10;;;7.70;;
2111;SDS011;1062;52.538;13.400;2022-09-09T02:10:22;11.13;;;9.70;;
2111;SDS011;1062;52.538;13.400;2022-09-09T02:12:55;8.73;;;7.70;;
2111;SDS011;1062;52.538;13.400;2022-09-09T02:18:06;9.17;;;7.43;;
2111;SDS011;1062;52.538;13.400;2022-09-09T02:20:36;10.63;;;7.20;;
2111;SDS011;1062;52.538;13.400;2022-09-09T02:23:03;9.87;;;7.80;;
2111;SDS011;1062;52.538;13.400;2022-09-09T02:25:30;12.30;;;8.10;;
2111;SDS011;1062;52.538;13.400;2022-09-09T02:27:58;8.30;;;7.03;;
2111;SDS011;1062;52.538;13.400;2022-09-09T02:30:24;8.70;;;7.57;;
2111;SDS011;1062;52.538;13.400;2022-09-09T02:32:50;9.67;;;8.07;;
2111;SDS011;1062;52.538;13.400;2022-09-09T02:35:22;8.90;;;7.47;;
2111;SDS011;1062;52.538;13.400;2022-09-09T02:37:49;13.07;;;7.40;;
2111;SDS011;1062;52.538;13.400;2022-09-09T02:40:18;8.17;;;6.93;;
2111;SDS011;1062;52.538;13.400;2022-09-09T02:42:45;11.13;;;8.23;;
2111;SDS011;1062;52.538;13.400;2022-09-09T02:45:13;8.20;;;7.40;;
2111;SDS011;1062;52.538;13.400;2022-09-09T02:48:03;9.20;;;7.03;;
2111;SDS011;1062;52.538;13.400;2022-09-09T02:50:49;9.43;;;6.80;;
2111;SDS011;1062;52.538;13.400;2022-09-09T02:53:43;8.70;;;7.27;;
2111;SDS011;1062;52.538;13.400;2022-09-09T02:56:20;9.60;;;7.40;;
2111;SDS011;1062;52.538;13.400;2022-09-09T02:58:48;8.63;;;7.00;;
2111;SDS011;1062;52.538;13.400;2022-09-09T03:01:16;8.53;;;6.20;;
2111;SDS011;1062;52.538;13.400;2022-09-09T03:03:42;11.00;;;7.50;;
2111;SDS011;1062;52.538;13.400;2022-09-09T03:06:09;7.77;;;6.30;;
2111;SDS011;1062;52.538;13.400;2022-09-09T03:08:36;6.67;;;6.00;;
2111;SDS011;1062;52.538;13.400;2022-09-09T03:11:02;9.47;;;6.53;;
2111;SDS011;1062;52.538;13.400;2022-09-09T03:13:28;10.73;;;6.50;;
2111;SDS011;1062;52.538;13.400;2022-09-09T03:15:53;10.37;;;6.80;;
2111;SDS011;1062;52.538;13.400;2022-09-09T03:18:19;7.80;;;6.60;;
2111;SDS011;1062;52.538;13.400;2022-09-09T03:20:45;9.10;;;6.60;;
2111;SDS011;1062;52.538;13.400;2022-09-09T03:23:13;7.50;;;6.37;;
2111;SDS011;1062;52.538;13.400;2022-09-09T03:25:39;9.03;;;7.00;;
2111;SDS011;1062;52.538;13.400;2022-09-09T03:28:11;8.67;;;6.43;;
2111;SDS011;1062;52.538;13.400;2022-09-09T03:30:36;12.50;;;8.73;;
2111;SDS011;1062;52.538;13.400;2022-09-09T03:33:02;8.70;;;7.80;;
2111;SDS011;1062;52.538;13.400;2022-09-09T03:35:28;10.83;;;6.80;;
2111;SDS011;1062;52.538;13.400;2022-09-09T03:37:54;14.00;;;7.17;;
2111;SDS011;1062;52.538;13.400;2022-09-09T03:40:20;11.00;;;6.70;;
2111;SDS011;1062;52.538;13.400;2022-09-09T03:42:46;7.83;;;6.70;;
2111;SDS011;1062;52.538;13.400;2022-09-09T03:45:13;11.17;;;7.40;;
2111;SDS011;1062;52.538;13.400;2022-09-09T03:47:38;7.10;;;6.23;;
2111;SDS011;1062;52.538;13.400;2022-09-09T03:50:04;8.33;;;6.67;;
2111;SDS011;1062;52.538;13.400;2022-09-09T03:52:37;7.67;;;6.90;;
2111;SDS011;1062;52.538;13.400;2022-09-09T03:55:04;8.97;;;6.43;;
2111;SDS011;1062;52.538;13.400;2022-09-09T03:57:30;11.30;;;8.33;;
2111;SDS011;1062;52.538;13.400;2022-09-09T03:59:56;9.30;;;7.80;;
2111;SDS011;1062;52.538;13.400;2022-09-09T04:02:22;7.37;;;6.57;;
2111;SDS011;1062;52.538;13.400;2022-09-09T04:04:48;9.10;;;5.97;;
2111;SDS011;1062;52.538;13.400;2022-09-09T04:07:14;7.70;;;6.07;;
2111;SDS011;1062;52.538;13.400;2022-09-09T04:09:39;7.80;;;6.50;;
2111;SDS011;1062;52.538;13.400;2022-09-09T04:12:05;10.63;;;6.30;;
2111;SDS011;1062;52.538;13.400;2022-09-09T04:14:31;9.33;;;6.20;;
2111;SDS011;1062;52.538;13.400;2022-09-09T04:16:57;6.17;;;5.20;;
2111;SDS011;1062;52.538;13.400;2022-09-09T04:19:24;10.07;;;6.50;;
2111;SDS011;1062;52.538;13.400;2022-09-09T04:21:50;6.40;;;5.70;;
2111;SDS011;1062;52.538;13.400;2022-09-09T04:24:16;5.83;;;5.17;;
2111;SDS011;1062;52.538;13.400;2022-09-09T04:26:42;7.17;;;6.50;;
2111;SDS011;1062;52.538;13.400;2022-09-09T04:29:08;6.13;;;5.00;;
2111;SDS011;1062;52.538;13.400;2022-09-09T04:31:34;7.57;;;6.13;;
2111;SDS011;1062;52.538;13.400;2022-09-09T04:33:59;8.73;;;5.00;;
2111;SDS011;1062;52.538;13.400;2022-09-09T04:36:30;6.97;;;6.27;;
2111;SDS011;1062;52.538;13.400;2022-09-09T04:38:57;8.30;;;5.90;;
2111;SDS011;1062;52.538;13.400;2022-09-09T04:41:22;7.03;;;5.57;;
2111;SDS011;1062;52.538;13.400;2022-09-09T04:43:48;6.87;;;6.17;;
2111;SDS011;1062;52.538;13.400;2022-09-09T04:46:14;9.63;;;7.30;;
2111;SDS011;1062;52.538;13.400;2022-09-09T04:48:42;8.33;;;7.33;;
2111;SDS011;1062;52.538;13.400;2022-09-09T04:51:09;8.53;;;5.90;;
2111;SDS011;1062;52.538;13.400;2022-09-09T04:53:36;6.17;;;5.57;;
2111;SDS011;1062;52.538;13.400;2022-09-09T04:56:03;7.00;;;5.90;;
2111;SDS011;1062;52.538;13.400;2022-09-09T04:58:35;7.90;;;6.30;;
2111;SDS011;1062;52.538;13.400;2022-09-09T05:01:07;9.50;;;5.50;;
2111;SDS011;1062;52.538;13.400;2022-09-09T05:03:38;6.17;;;5.57;;
2111;SDS011;1062;52.538;13.400;2022-09-09T05:08:29;7.97;;;5.93;;
2111;SDS011;1062;52.538;13.400;2022-09-09T05:10:55;8.50;;;6.60;;
2111;SDS011;1062;52.538;13.400;2022-09-09T05:13:20;6.60;;;5.50;;
2111;SDS011;1062;52.538;13.400;2022-09-09T05:15:54;7.17;;;5.60;;
2111;SDS011;1062;52.538;13.400;2022-09-09T05:18:20;8.47;;;6.50;;
2111;SDS011;1062;52.538;13.400;2022-09-09T05:20:47;7.50;;;6.37;;
2111;SDS011;1062;52.538;13.400;2022-09-09T05:23:13;11.50;;;6.47;;
2111;SDS011;1062;52.538;13.400;2022-09-09T05:25:39;8.30;;;6.17;;
2111;SDS011;1062;52.538;13.400;2022-09-09T05:28:06;7.90;;;5.47;;
2111;SDS011;1062;52.538;13.400;2022-09-09T05:30:32;6.80;;;6.03;;
2111;SDS011;1062;52.538;13.400;2022-09-09T05:32:58;6.30;;;5.33;;
2111;SDS011;1062;52.538;13.400;2022-09-09T05:35:24;7.00;;;5.57;;
2111;SDS011;1062;52.538;13.400;2022-09-09T05:37:50;6.57;;;5.37;;
2111;SDS011;1062;52.538;13.400;2022-09-09T05:40:15;6.93;;;6.13;;
2111;SDS011;1062;52.538;13.400;2022-09-09T05:42:41;6.77;;;5.60;;
2111;SDS011;1062;52.538;13.400;2022-09-09T05:45:07;6.10;;;5.50;;
2111;SDS011;1062;52.538;13.400;2022-09-09T05:47:34;5.03;;;4.53;;
2111;SDS011;1062;52.538;13.400;2022-09-09T05:50:02;4.73;;;4.07;;
2111;SDS011;1062;52.538;13.400;2022-09-09T05:52:28;4.63;;;3.87;;
2111;SDS011;1062;52.538;13.400;2022-09-09T05:54:54;4.57;;;3.70;;
2111;SDS011;1062;52.538;13.400;2022-09-09T05:57:21;3.83;;;3.53;;
2111;SDS011;1062;52.538;13.400;2022-09-09T05:59:46;3.33;;;3.00;;
2111;SDS011;1062;52.538;13.400;2022-09-09T06:02:12;3.40;;;2.93;;
2111;SDS011;1062;52.538;13.400;2022-09-09T06:04:38;3.67;;;3.27;;
2111;SDS011;1062;52.538;13.400;2022-09-09T06:07:04;2.53;;;2.43;;
2111;SDS011;1062;52.538;13.400;2022-09-09T06:09:30;4.97;;;4.47;;
2111;SDS011;1062;52.538;13.400;2022-09-09T06:11:55;3.13;;;2.80;;
2111;SDS011;1062;52.538;13.400;2022-09-09T06:14:22;2.70;;;2.50;;
2111;SDS011;1062;52.538;13.400;2022-09-09T06:16:48;3.97;;;2.67;;
2111;SDS011;1062;52.538;13.400;2022-09-09T06:19:13;2.60;;;2.40;;
2111;SDS011;1062;52.538;13.400;2022-09-09T06:21:39;3.63;;;2.97;;
2111;SDS011;1062;52.538;13.400;2022-09-09T06:24:06;2.30;;;2.10;;
2111;SDS011;1062;52.538;13.400;2022-09-09T06:26:35;3.13;;;2.20;;
2111;SDS011;1062;52.538;13.400;2022-09-09T06:29:04;2.53;;;2.20;;
2111;SDS011;1062;52.538;13.400;2022-09-09T06:31:30;3.40;;;2.43;;
2111;SDS011;1062;52.538;13.400;2022-09-09T06:33:59;2.57;;;2.20;;
2111;SDS011;1062;52.538;13.400;2022-09-09T06:36:25;3.33;;;2.10;;
2111;SDS011;1062;52.538;13.400;2022-09-09T06:38:52;2.10;;;1.90;;
2111;SDS011;1062;52.538;13.400;2022-09-09T06:41:19;3.90;;;2.07;;
2111;SDS011;1062;52.538;13.400;2022-09-09T06:43:46;3.63;;;2.10;;
2111;SDS011;1062;52.538;13.400;2022-09-09T06:46:18;4.70;;;2.10;;
2111;SDS011;1062;52.538;13.400;2022-09-09T06:48:48;2.80;;;2.03;;
2111;SDS011;1062;52.538;13.400;2022-09-09T06:53:45;2.53;;;2.00;;
2111;SDS011;1062;52.538;13.400;2022-09-09T06:58:43;1.90;;;1.80;;
2111;SDS011;1062;52.538;13.400;2022-09-09T07:01:10;2.00;;;1.73;;
2111;SDS011;1062;52.538;13.400;2022-09-09T07:03:37;1.97;;;1.70;;
2111;SDS011;1062;52.538;13.400;2022-09-09T07:06:04;3.17;;;1.80;;
2111;SDS011;1062;52.538;13.400;2022-09-09T07:08:31;1.60;;;1.50;;
2111;SDS011;1062;52.538;13.400;2022-09-09T07:11:03;4.07;;;1.97;;
2111;SDS011;1062;52.538;13.400;2022-09-09T07:13:30;3.07;;;1.50;;
2111;SDS011;1062;52.538;13.400;2022-09-09T07:16:03;3.10;;;2.23;;
2111;SDS011;1062;52.538;13.400;2022-09-09T07:18:36;1.70;;;1.40;;
2111;SDS011;1062;52.538;13.400;2022-09-09T07:21:02;1.40;;;1.30;;
2111;SDS011;1062;52.538;13.400;2022-09-09T07:23:29;1.87;;;1.60;;
2111;SDS011;1062;52.538;13.400;2022-09-09T07:25:56;2.30;;;1.50;;
2111;SDS011;1062;52.538;13.400;2022-09-09T07:28:23;3.93;;;1.70;;
2111;SDS011;1062;52.538;13.400;2022-09-09T07:30:56;1.63;;;1.53;;
2111;SDS011;1062;52.538;13.400;2022-09-09T07:33:26;2.83;;;1.70;;
2111;SDS011;1062;52.538;13.400;2022-09-09T07:35:52;2.77;;;1.47;;
2111;SDS011;1062;52.538;13.400;2022-09-09T07:38:18;2.00;;;1.13;;
2111;SDS011;1062;52.538;13.400;2022-09-09T07:40:45;2.17;;;1.90;;
2111;SDS011;1062;52.538;13.400;2022-09-09T07:43:11;2.53;;;1.87;;
2111;SDS011;1062;52.538;13.400;2022-09-09T07:45:36;5.33;;;1.90;;
2111;SDS011;1062;52.538;13.400;2022-09-09T07:48:03;2.13;;;1.80;;
2111;SDS011;1062;52.538;13.400;2022-09-09T07:50:30;2.73;;;1.43;;
2111;SDS011;1062;52.538;13.400;2022-09-09T07:52:55;3.00;;;2.10;;
2111;SDS011;1062;52.538;13.400;2022-09-09T07:55:21;1.37;;;1.27;;
2111;SDS011;1062;52.538;13.400;2022-09-09T07:57:50;4.07;;;1.67;;
2111;SDS011;1062;52.538;13.400;2022-09-09T08:00:16;2.03;;;1.33;;
2111;SDS011;1062;52.538;13.400;2022-09-09T08:02:41;1.33;;;1.20;;
2111;SDS011;1062;52.538;13.400;2022-09-09T08:05:07;1.20;;;1.10;;
2111;SDS011;1062;52.538;13.400;2022-09-09T08:07:32;2.40;;;1.97;;
2111;SDS011;1062;52.538;13.400;2022-09-09T08:09:58;3.80;;;1.70;;
2111;SDS011;1062;52.538;13.400;2022-09-09T08:12:24;2.70;;;1.20;;
2111;SDS011;1062;52.538;13.400;2022-09-09T08:14:49;2.10;;;1.10;;
2111;SDS011;1062;52.538;13.400;2022-09-09T08:17:16;1.50;;;1.40;;
2111;SDS011;1062;52.538;13.400;2022-09-09T08:19:42;2.70;;;1.50;;
2111;SDS011;1062;52.538;13.400;2022-09-09T08:22:07;1.40;;;1.30;;
2111;SDS011;1062;52.538;13.400;2022-09-09T08:24:33;1.93;;;1.30;;
2111;SDS011;1062;52.538;13.400;2022-09-09T08:26:59;2.63;;;1.30;;
2111;SDS011;1062;52.538;13.400;2022-09-09T08:29:24;1.43;;;1.30;;
2111;SDS011;1062;52.538;13.400;2022-09-09T08:31:53;2.77;;;1.83;;
2111;SDS011;1062;52.538;13.400;2022-09-09T08:34:22;2.60;;;1.60;;
2111;SDS011;1062;52.538;13.400;2022-09-09T08:36:48;5.97;;;1.83;;
2111;SDS011;1062;52.538;13.400;2022-09-09T08:39:16;2.90;;;1.70;;
2111;SDS011;1062;52.538;13.400;2022-09-09T08:41:51;1.33;;;1.23;;
2111;SDS011;1062;52.538;13.400;2022-09-09T08:49:55;4.00;;;1.47;;
2111;SDS011;1062;52.538;13.400;2022-09-09T08:52:50;1.40;;;1.30;;
2111;SDS011;1062;52.538;13.400;2022-09-09T08:55:35;1.80;;;1.40;;
2111;SDS011;1062;52.538;13.400;2022-09-09T08:58:04;3.60;;;1.30;;
2111;SDS011;1062;52.538;13.400;2022-09-09T09:00:46;2.40;;;1.60;;
2111;SDS011;1062;52.538;13.400;2022-09-09T09:06:01;1.40;;;1.20;;
2111;SDS011;1062;52.538;13.400;2022-09-09T09:08:45;1.90;;;1.73;;
2111;SDS011;1062;52.538;13.400;2022-09-09T09:11:16;1.73;;;1.50;;
2111;SDS011;1062;52.538;13.400;2022-09-09T09:13:51;1.90;;;1.40;;
2111;SDS011;1062;52.538;13.400;2022-09-09T09:19:34;1.90;;;1.43;;
2111;SDS011;1062;52.538;13.400;2022-09-09T09:25:03;2.20;;;1.80;;
2111;SDS011;1062;52.538;13.400;2022-09-09T09:27:48;1.57;;;1.33;;
2111;SDS011;1062;52.538;13.400;2022-09-09T09:30:16;1.20;;;1.10;;
2111;SDS011;1062;52.538;13.400;2022-09-09T09:32:53;1.90;;;1.10;;
2111;SDS011;1062;52.538;13.400;2022-09-09T09:35:37;2.10;;;1.30;;
2111;SDS011;1062;52.538;13.400;2022-09-09T09:38:09;2.33;;;1.30;;
2111;SDS011;1062;52.538;13.400;2022-09-09T09:41:03;2.20;;;1.30;;
2111;SDS011;1062;52.538;13.400;2022-09-09T09:43:35;1.30;;;1.10;;
2111;SDS011;1062;52.538;13.400;2022-09-09T09:46:04;3.40;;;1.30;;
2111;SDS011;1062;52.538;13.400;2022-09-09T09:48:31;1.37;;;1.27;;
2111;SDS011;1062;52.538;13.400;2022-09-09T09:51:03;4.03;;;1.60;;
2111;SDS011;1062;52.538;13.400;2022-09-09T09:53:38;3.00;;;1.50;;
2111;SDS011;1062;52.538;13.400;2022-09-09T09:56:13;1.80;;;1.60;;
2111;SDS011;1062;52.538;13.400;2022-09-09T10:01:19;1.87;;;1.23;;
2111;SDS011;1062;52.538;13.400;2022-09-09T10:03:52;1.37;;;1.27;;
2111;SDS011;1062;52.538;13.400;2022-09-09T10:06:38;1.73;;;1.47;;
2111;SDS011;1062;52.538;13.400;2022-09-09T10:09:19;1.97;;;1.50;;
2111;SDS011;1062;52.538;13.400;2022-09-09T10:12:08;2.23;;;1.63;;
2111;SDS011;1062;52.538;13.400;2022-09-09T10:17:21;2.40;;;1.40;;
2111;SDS011;1062;52.538;13.400;2022-09-09T10:22:35;3.90;;;1.27;;
2111;SDS011;1062;52.538;13.400;2022-09-09T10:25:03;2.07;;;1.30;;
2111;SDS011;1062;52.538;13.400;2022-09-09T10:30:39;1.43;;;1.30;;
2111;SDS011;1062;52.538;13.400;2022-09-09T10:33:22;1.67;;;1.37;;
2111;SDS011;1062;52.538;13.400;2022-09-09T10:36:14;2.70;;;1.57;;
2111;SDS011;1062;52.538;13.400;2022-09-09T10:38:47;2.70;;;1.30;;
2111;SDS011;1062;52.538;13.400;2022-09-09T10:52:23;2.37;;;1.40;;
2111;SDS011;1062;52.538;13.400;2022-09-09T10:55:14;3.50;;;1.57;;
2111;SDS011;1062;52.538;13.400;2022-09-09T10:57:50;2.70;;;1.33;;
2111;SDS011;1062;52.538;13.400;2022-09-09T11:00:21;1.83;;;1.10;;
2111;SDS011;1062;52.538;13.400;2022-09-09T11:02:51;6.50;;;1.30;;
2111;SDS011;1062;52.538;13.400;2022-09-09T11:05:22;2.00;;;1.20;;
2111;SDS011;1062;52.538;13.400;2022-09-09T11:07:56;2.20;;;1.07;;
2111;SDS011;1062;52.538;13.400;2022-09-09T11:10:33;1.30;;;1.20;;
2111;SDS011;1062;52.538;13.400;2022-09-09T11:13:05;1.77;;;1.20;;
2111;SDS011;1062;52.538;13.400;2022-09-09T11:15:52;1.20;;;1.03;;
2111;SDS011;1062;52.538;13.400;2022-09-09T11:18:24;2.70;;;2.03;;
2111;SDS011;1062;52.538;13.400;2022-09-09T11:20:55;2.27;;;1.47;;
2111;SDS011;1062;52.538;13.400;2022-09-09T11:23:27;1.33;;;1.07;;
2111;SDS011;1062;52.538;13.400;2022-09-09T11:26:04;1.30;;;1.20;;
2111;SDS011;1062;52.538;13.400;2022-09-09T11:31:21;4.90;;;1.50;;
2111;SDS011;1062;52.538;13.400;2022-09-09T11:34:17;3.17;;;1.30;;
2111;SDS011;1062;52.538;13.400;2022-09-09T11:37:12;4.70;;;1.40;;
2111;SDS011;1062;52.538;13.400;2022-09-09T11:40:15;2.23;;;1.37;;
2111;SDS011;1062;52.538;13.400;2022-09-09T11:42:48;5.17;;;1.63;;
2111;SDS011;1062;52.538;13.400;2022-09-09T11:45:26;1.37;;;1.27;;
2111;SDS011;1062;52.538;13.400;2022-09-09T11:47:55;2.43;;;1.73;;
2111;SDS011;1062;52.538;13.400;2022-09-09T11:52:49;2.60;;;1.30;;
2111;SDS011;1062;52.538;13.400;2022-09-09T11:55:30;2.27;;;1.57;;
2111;SDS011;1062;52.538;13.400;2022-09-09T12:00:31;2.20;;;1.40;;
2111;SDS011;1062;52.538;13.400;2022-09-09T12:03:02;1.40;;;1.00;;
2111;SDS011;1062;52.538;13.400;2022-09-09T12:05:36;1.00;;;0.90;;
2111;SDS011;1062;52.538;13.400;2022-09-09T12:08:04;1.33;;;1.20;;
2111;SDS011;1062;52.538;13.400;2022-09-09T12:10:35;1.13;;;1.03;;
2111;SDS011;1062;52.538;13.400;2022-09-09T12:15:47;2.10;;;1.30;;
2111;SDS011;1062;52.538;13.400;2022-09-09T12:18:15;1.70;;;1.20;;
2111;SDS011;1062;52.538;13.400;2022-09-09T12:21:16;1.43;;;1.10;;
2111;SDS011;1062;52.538;13.400;2022-09-09T12:23:52;2.80;;;1.53;;
2111;SDS011;1062;52.538;13.400;2022-09-09T12:26:27;2.53;;;1.30;;
2111;SDS011;1062;52.538;13.400;2022-09-09T12:32:45;2.40;;;1.10;;
2111;SDS011;1062;52.538;13.400;2022-09-09T12:34:53;2.60;;;1.00;;
2111;SDS011;1062;52.538;13.400;2022-09-09T12:37:37;1.37;;;1.13;;
2111;SDS011;1062;52.538;13.400;2022-09-09T12:40:14;1.20;;;1.10;;
2111;SDS011;1062;52.538;13.400;2022-09-09T12:42:45;1.47;;;1.30;;
2111;SDS011;1062;52.538;13.400;2022-09-09T12:45:18;2.27;;;1.33;;
2111;SDS011;1062;52.538;13.400;2022-09-09T12:47:46;5.57;;;1.17;;
2111;SDS011;1062;52.538;13.400;2022-09-09T12:50:17;1.00;;;0.90;;
2111;SDS011;1062;52.538;13.400;2022-09-09T12:52:46;2.03;;;1.10;;
2111;SDS011;1062;52.538;13.400;2022-09-09T12:55:19;3.50;;;1.20;;
2111;SDS011;1062;52.538;13.400;2022-09-09T12:57:46;1.20;;;1.00;;
2111;SDS011;1062;52.538;13.400;2022-09-09T13:00:24;3.33;;;1.40;;
2111;SDS011;1062;52.538;13.400;2022-09-09T13:02:54;1.27;;;1.10;;
2111;SDS011;1062;52.538;13.400;2022-09-09T13:05:22;2.10;;;1.20;;
2111;SDS011;1062;52.538;13.400;2022-09-09T13:07:49;3.33;;;1.30;;
2111;SDS011;1062;52.538;13.400;2022-09-09T13:10:20;2.27;;;1.00;;
2111;SDS011;1062;52.538;13.400;2022-09-09T13:12:51;1.93;;;0.90;;
2111;SDS011;1062;52.538;13.400;2022-09-09T13:15:24;5.23;;;1.97;;
2111;SDS011;1062;52.538;13.400;2022-09-09T13:17:53;2.13;;;1.43;;
2111;SDS011;1062;52.538;13.400;2022-09-09T13:20:21;6.03;;;1.00;;
2111;SDS011;1062;52.538;13.400;2022-09-09T13:22:49;2.30;;;1.00;;
2111;SDS011;1062;52.538;13.400;2022-09-09T13:25:20;5.33;;;1.30;;
2111;SDS011;1062;52.538;13.400;2022-09-09T13:27:57;2.10;;;1.23;;
2111;SDS011;1062;52.538;13.400;2022-09-09T13:33:05;1.60;;;0.80;;
2111;SDS011;1062;52.538;13.400;2022-09-09T13:35:34;3.07;;;1.10;;
2111;SDS011;1062;52.538;13.400;2022-09-09T13:38:07;1.57;;;0.83;;
2111;SDS011;1062;52.538;13.400;2022-09-09T13:40:34;1.80;;;0.80;;
2111;SDS011;1062;52.538;13.400;2022-09-09T13:43:01;2.30;;;1.10;;
2111;SDS011;1062;52.538;13.400;2022-09-09T13:45:28;2.07;;;1.03;;
2111;SDS011;1062;52.538;13.400;2022-09-09T13:47:54;3.23;;;1.20;;
2111;SDS011;1062;52.538;13.400;2022-09-09T13:52:48;1.40;;;1.10;;
2111;SDS011;1062;52.538;13.400;2022-09-09T13:55:15;2.30;;;1.30;;
2111;SDS011;1062;52.538;13.400;2022-09-09T13:57:49;1.50;;;1.17;;
2111;SDS011;1062;52.538;13.400;2022-09-09T14:00:19;1.10;;;0.93;;
2111;SDS011;1062;52.538;13.400;2022-09-09T14:02:46;5.03;;;1.10;;
2111;SDS011;1062;52.538;13.400;2022-09-09T14:05:12;5.30;;;1.27;;
2111;SDS011;1062;52.538;13.400;2022-09-09T14:07:38;2.00;;;1.07;;
2111;SDS011;1062;52.538;13.400;2022-09-09T14:10:05;4.00;;;1.00;;
2111;SDS011;1062;52.538;13.400;2022-09-09T14:12:32;5.23;;;1.10;;
2111;SDS011;1062;52.538;13.400;2022-09-09T14:14:57;2.20;;;1.47;;
2111;SDS011;1062;52.538;13.400;2022-09-09T14:17:24;2.70;;;1.13;;
2111;SDS011;1062;52.538;13.400;2022-09-09T14:19:54;5.03;;;1.50;;
2111;SDS011;1062;52.538;13.400;2022-09-09T14:22:19;3.37;;;1.10;;
2111;SDS011;1062;52.538;13.400;2022-09-09T14:24:45;1.90;;;1.03;;
2111;SDS011;1062;52.538;13.400;2022-09-09T14:27:11;1.50;;;1.10;;
2111;SDS011;1062;52.538;13.400;2022-09-09T14:29:36;1.57;;;1.00;;
2111;SDS011;1062;52.538;13.400;2022-09-09T14:32:02;3.50;;;0.87;;
2111;SDS011;1062;52.538;13.400;2022-09-09T14:34:28;2.27;;;1.07;;
2111;SDS011;1062;52.538;13.400;2022-09-09T14:36:53;1.90;;;1.20;;
2111;SDS011;1062;52.538;13.400;2022-09-09T14:39:19;1.33;;;1.00;;
2111;SDS011;1062;52.538;13.400;2022-09-09T14:41:44;1.63;;;1.00;;
2111;SDS011;1062;52.538;13.400;2022-09-09T14:44:10;1.90;;;1.30;;
2111;SDS011;1062;52.538;13.400;2022-09-09T14:46:36;1.60;;;1.50;;
2111;SDS011;1062;52.538;13.400;2022-09-09T14:49:02;1.53;;;0.80;;
2111;SDS011;1062;52.538;13.400;2022-09-09T14:51:27;3.90;;;1.20;;
2111;SDS011;1062;52.538;13.400;2022-09-09T14:53:57;1.50;;;1.10;;
2111;SDS011;1062;52.538;13.400;2022-09-09T14:56:25;3.77;;;1.00;;
2111;SDS011;1062;52.538;13.400;2022-09-09T14:58:53;1.53;;;1.07;;
2111;SDS011;1062;52.538;13.400;2022-09-09T15:01:20;1.70;;;1.00;;
2111;SDS011;1062;52.538;13.400;2022-09-09T15:03:51;1.30;;;1.00;;
2111;SDS011;1062;52.538;13.400;2022-09-09T15:06:19;1.20;;;1.00;;
2111;SDS011;1062;52.538;13.400;2022-09-09T15:08:47;2.20;;;1.37;;
2111;SDS011;1062;52.538;13.400;2022-09-09T15:11:14;2.33;;;1.20;;
2111;SDS011;1062;52.538;13.400;2022-09-09T15:13:41;2.73;;;2.20;;
2111;SDS011;1062;52.538;13.400;2022-09-09T15:16:09;1.40;;;1.07;;
2111;SDS011;1062;52.538;13.400;2022-09-09T15:18:39;1.70;;;1.00;;
2111;SDS011;1062;52.538;13.400;2022-09-09T15:21:07;1.53;;;1.23;;
2111;SDS011;1062;52.538;13.400;2022-09-09T15:23:34;2.13;;;1.23;;
2111;SDS011;1062;52.538;13.400;2022-09-09T15:26:01;4.70;;;2.07;;
2111;SDS011;1062;52.538;13.400;2022-09-09T15:28:27;3.37;;;1.10;;
2111;SDS011;1062;52.538;13.400;2022-09-09T15:30:53;1.53;;;0.93;;
2111;SDS011;1062;52.538;13.400;2022-09-09T15:33:20;1.50;;;1.40;;
2111;SDS011;1062;52.538;13.400;2022-09-09T15:35:47;2.70;;;1.40;;
2111;SDS011;1062;52.538;13.400;2022-09-09T15:38:13;1.63;;;0.90;;
2111;SDS011;1062;52.538;13.400;2022-09-09T15:40:41;1.67;;;1.10;;
2111;SDS011;1062;52.538;13.400;2022-09-09T15:43:07;1.20;;;1.10;;
2111;SDS011;1062;52.538;13.400;2022-09-09T15:45:34;1.77;;;1.30;;
2111;SDS011;1062;52.538;13.400;2022-09-09T15:48:00;2.17;;;1.97;;
2111;SDS011;1062;52.538;13.400;2022-09-09T15:50:27;3.00;;;1.10;;
2111;SDS011;1062;52.538;13.400;2022-09-09T15:52:53;1.30;;;1.03;;
2111;SDS011;1062;52.538;13.400;2022-09-09T15:55:19;2.67;;;1.57;;
2111;SDS011;1062;52.538;13.400;2022-09-09T15:57:45;2.07;;;1.57;;
2111;SDS011;1062;52.538;13.400;2022-09-09T16:00:11;2.20;;;1.10;;
2111;SDS011;1062;52.538;13.400;2022-09-09T16:02:38;1.80;;;1.20;;
2111;SDS011;1062;52.538;13.400;2022-09-09T16:05:04;1.63;;;0.93;;
2111;SDS011;1062;52.538;13.400;2022-09-09T16:07:30;3.00;;;1.70;;
2111;SDS011;1062;52.538;13.400;2022-09-09T16:09:55;2.43;;;1.60;;
2111;SDS011;1062;52.538;13.400;2022-09-09T16:12:21;1.90;;;1.43;;
2111;SDS011;1062;52.538;13.400;2022-09-09T16:14:46;2.77;;;1.60;;
2111;SDS011;1062;52.538;13.400;2022-09-09T16:17:12;1.33;;;1.23;;
2111;SDS011;1062;52.538;13.400;2022-09-09T16:19:39;2.17;;;1.40;;
2111;SDS011;1062;52.538;13.400;2022-09-09T16:22:04;1.70;;;1.60;;
2111;SDS011;1062;52.538;13.400;2022-09-09T16:24:31;2.10;;;1.47;;
2111;SDS011;1062;52.538;13.400;2022-09-09T16:26:57;2.27;;;0.87;;
2111;SDS011;1062;52.538;13.400;2022-09-09T16:29:23;1.10;;;1.00;;
2111;SDS011;1062;52.538;13.400;2022-09-09T16:31:51;2.00;;;1.50;;
2111;SDS011;1062;52.538;13.400;2022-09-09T16:34:17;2.23;;;1.20;;
2111;SDS011;1062;52.538;13.400;2022-09-09T16:36:43;3.07;;;1.77;;
2111;SDS011;1062;52.538;13.400;2022-09-09T16:39:11;1.90;;;1.00;;
2111;SDS011;1062;52.538;13.400;2022-09-09T16:41:38;1.30;;;1.00;;
2111;SDS011;1062;52.538;13.400;2022-09-09T16:44:06;1.30;;;1.20;;
2111;SDS011;1062;52.538;13.400;2022-09-09T16:46:37;1.77;;;1.47;;
2111;SDS011;1062;52.538;13.400;2022-09-09T16:49:06;1.63;;;1.20;;